Canadian Enterprise — VCJM — position and weather

sailwx.info

Track history (hours):
 
Tides and Currents Weather Stations Pressure Air Temp Water Temp Dewpoint Dewpoint Depression Visibility Wind Speed Wind Dir Waves Ship Positions

Canadian Enterprise

Last reported at 2017-Dec-15 03:00 UTC. Time now 2017-Dec-15 04:28 UTC.
Position N 41°42' W 083°30'.

Length 27 m; draft 4.2 m.

Type: Tug. MMSI: 314954697.

Wind from 230 at 5 knots

Barometer 1019.4 mb
Air temperature -8.2 ° C
Dewpoint -12.6 ° C

Date/timePositionNaut miles runAvg speedWind from/ knotsBaromVisibWave heightAir tempDewpointWater temp
2017-Dec-15 03:00N 41°42' W 083°30'0 0.0 230 / 51019.4 -8.2-12.6
2017-Dec-15 02:00N 41°42' W 083°30'0 0.0 240 / 61019.5 -8.3-12.4
2017-Dec-15 01:00N 41°42' W 083°30'0 0.0 230 / 61019.7 -7.9-12.4
2017-Dec-15 00:00N 41°42' W 083°30'0 0.0 240 / 61019.5 -7.1-12.3
2017-Dec-14 23:00N 41°42' W 083°30'0 0.0 270 / 51019.0 -7.0-12.3
2017-Dec-14 22:00N 41°42' W 083°30'0 0.0 290 / 41018.3 -6.8-12.7
2017-Dec-14 21:00N 41°42' W 083°30'4 4.5 300 / 41018.0 -5.8-12.6
2017-Dec-14 20:00N 41°42' W 083°24'1110.8 300 / 121017.3 -6.5-12.4
2017-Dec-14 19:00N 41°48' W 083°12'1514.7 300 / 131016.9 -6.7-11.9
2017-Dec-14 18:00N 41°54' W 082°54'9 8.9 310 / 91017.1 -6.5-11.7
2017-Dec-14 17:00N 41°54' W 082°42'1110.8 320 / 71017.4 -6.8-9.5
2017-Dec-14 16:00N 41°48' W 082°30'1514.7 320 / 131016.5 -5.5-6.6
2017-Dec-14 15:00N 41°54' W 082°12'1313.4 320 / 141014.9 -5.3-6.2
2017-Dec-14 14:00N 41°54' W 081°54'1110.8 330 / 141013.4 -5.8-8.0
2017-Dec-14 13:00N 42°00' W 081°42'1110.7 340 / 161011.9 -5.4-7.6
2017-Dec-14 12:00N 42°06' W 081°30'1514.6 360 / 141010.1 -5.1-7.9
2017-Dec-14 11:00N 42°12' W 081°12'4812.0 010 / 19 -5.4-7.3
2017-Dec-14 07:00N 42°30' W 080°12'1313.3 040 / 21999.5 -3.9-4.1
2017-Dec-14 06:00N 42°30' W 079°54'1514.9 040 / 21999.1 -3.0-3.1
2017-Dec-14 05:00N 42°42' W 079°42'1110.7 110 / 9999.2 -4.5-4.7
2017-Dec-14 04:00N 42°48' W 079°30'1110.6 070 / 171000.2 -5.7-5.9
2017-Dec-14 03:00N 42°54' W 079°18'4 4.4 060 / 91001.6 -8.3-8.5
2017-Dec-14 02:00N 42°54' W 079°12'6 6.0 070 / 61002.9 -8.4-8.6
2017-Dec-14 01:00N 43°00' W 079°12'6 6.0 130 / 3 -8.6-8.8
2017-Dec-14 00:00N 43°06' W 079°12'0 0.0 150 / 4 -8.0-11.1
2017-Dec-13 23:00N 43°06' W 079°12'0 0.0 150 / 4 -7.5-11.4
2017-Dec-13 22:00N 43°06' W 079°12'0 0.0 280 / 2 -7.1-11.6
2017-Dec-13 21:00N 43°06' W 079°12'12 1.7 270 / 5 -7.2-11.9
2017-Dec-13 14:00N 43°18' W 079°12'6 6.0 290 / 211007.2 -7.4-11.7
2017-Dec-13 13:00N 43°24' W 079°12'1212.0 300 / 191006.6 -8.1-11.0
2017-Dec-13 12:00N 43°36' W 079°12'39 7.8 290 / 111006.0 -10.5-11.6
2017-Dec-13 07:00N 43°54' W 078°24'13 6.5 320 / 221001.2 -10.4-12.3
2017-Dec-13 05:00N 43°54' W 078°06'4 4.3 310 / 241000.0 -8.7-9.8
2017-Dec-13 04:00N 43°54' W 078°00'4 4.3 310 / 231000.1 -8.1-8.6
2017-Dec-13 03:00N 43°54' W 077°54'44 6.2 290 / 24999.8 -7.8-8.4
2017-Dec-12 20:00N 43°48' W 076°54'7 7.4 300 / 17998.2 -3.3-3.5
2017-Dec-12 19:00N 43°54' W 076°48'1212.0 290 / 13998.5 -3.9-4.1
2017-Dec-12 18:00N 44°06' W 076°48'6 6.0 340 / 9997.9 -5.2-5.4
2017-Dec-12 17:00N 44°12' W 076°48'0 0.0 010 / 6998.2 -4.2-4.8
2017-Dec-12 16:00N 44°12' W 076°48'0 0.0 010 / 5998.9 -4.7-5.0
2017-Dec-12 15:00N 44°12' W 076°48'0 0.0 010 / 7999.1 -4.7-4.9
2017-Dec-12 14:00N 44°12' W 076°48'0 0.0 030 / 7999.5 -4.3-4.5
2017-Dec-12 13:00N 44°12' W 076°48'0 0.0 030 / 71000.0 -4.4-4.6
2017-Dec-12 12:00N 44°12' W 076°48'0 0.0 040 / 81000.6 -4.9-5.1
2017-Dec-12 11:00N 44°12' W 076°48'0 0.0 030 / 81001.1 -5.2-5.4
2017-Dec-12 10:00N 44°12' W 076°48'0 0.0 030 / 101002.1 -4.9-5.1
2017-Dec-12 09:00N 44°12' W 076°48'0 0.0 040 / 121003.2 -5.8-6.0
2017-Dec-12 08:00N 44°12' W 076°48'0 0.0 040 / 101005.1 -5.4-5.7
2017-Dec-12 07:00N 44°12' W 076°48'0 0.0 030 / 101006.5 -5.2-5.4
2017-Dec-12 06:00N 44°12' W 076°48'0 0.0 040 / 121007.6 -5.5-5.7
2017-Dec-12 05:00N 44°12' W 076°48'0 0.0 040 / 131009.1 -5.5-5.7
2017-Dec-12 04:00N 44°12' W 076°48'0 0.0 040 / 121010.3 -4.7-5.4
2017-Dec-12 03:00N 44°12' W 076°48'0 0.0 070 / 151011.5 -5.1-5.9
2017-Dec-12 02:00N 44°12' W 076°48'0 0.0 080 / 131012.1 -5.0-5.2
2017-Dec-12 01:00N 44°12' W 076°48'0 0.0 080 / 91013.4 -5.2-6.3
2017-Dec-12 00:00N 44°12' W 076°48'0 0.0 100 / 81014.3 -5.7-8.3
2017-Dec-11 23:00N 44°12' W 076°48'0 0.0 100 / 61015.5 -5.8-11.4
2017-Dec-11 22:00N 44°12' W 076°48'0 0.0 110 / 41016.3 -6.5-14.0
2017-Dec-11 21:00N 44°12' W 076°48'0 0.0 160 / 41016.7 -6.5-13.7
2017-Dec-11 19:00N 44°12' W 076°48'0 0.0 040 / 21016.9 -5.1-14.1
2017-Dec-11 18:00N 44°12' W 076°48'0 0.0 350 / 31017.3 -5.9-14.4
2017-Dec-11 17:00N 44°12' W 076°48'0 0.0 360 / 31017.9 -6.7-13.7
2017-Dec-11 16:00N 44°12' W 076°48'0 0.0 340 / 31018.7 -7.2-12.9
2017-Dec-11 15:00N 44°12' W 076°48'0 0.0 020 / 41018.5 -6.6-11.3
2017-Dec-11 14:00N 44°12' W 076°48'0 0.0 360 / 41018.2 -8.0-11.6
2017-Dec-11 13:00N 44°12' W 076°48'0 0.0 010 / 51016.8 -8.4-11.2
2017-Dec-11 12:00N 44°12' W 076°48'0 0.0 340 / 61016.3 -8.3-11.3
2017-Dec-11 11:00N 44°12' W 076°48'0 0.0 340 / 41015.2 -6.1-11.5
2017-Dec-11 10:00N 44°12' W 076°48'0 0.0 340 / 51014.4 -5.2-9.8
2017-Dec-11 09:00N 44°12' W 076°48'0 0.0 310 / 61013.5 -3.8-9.6
2017-Dec-11 08:00N 44°12' W 076°48'0 0.0 350 / 81012.6 -3.3-7.9
2017-Dec-11 07:00N 44°12' W 076°48'0 0.0 300 / 81012.0 -3.0-8.7
2017-Dec-11 06:00N 44°12' W 076°48'0 0.0 300 / 81011.2 -2.1-6.4
2017-Dec-11 05:00N 44°12' W 076°48'0 0.0 300 / 91010.9 -1.4-4.9
2017-Dec-11 04:00N 44°12' W 076°48'0 0.0 280 / 111010.3 -0.6-4.4
2017-Dec-11 03:00N 44°12' W 076°48'0 0.0 270 / 121010.0 -0.2-4.9
2017-Dec-11 02:00N 44°12' W 076°48'0 0.0 270 / 71009.7 -0.4-4.3
2017-Dec-11 01:00N 44°12' W 076°48'0 0.0 260 / 81009.6 -0.3-4.9
2017-Dec-11 00:00N 44°12' W 076°48'0 0.0 260 / 111009.4 -0.3-5.8
2017-Dec-10 23:00N 44°12' W 076°48'0 0.0 250 / 111009.1 -0.6-5.9
2017-Dec-10 22:00N 44°12' W 076°48'0 0.0 250 / 121008.8 -0.6-5.3
2017-Dec-10 21:00N 44°12' W 076°48'6 6.0 250 / 101008.5 -0.9-3.2
2017-Dec-10 20:00N 44°06' W 076°48'6 6.0 250 / 171007.8 -1.2-3.9
2017-Dec-10 19:00N 44°00' W 076°48'6 6.0 270 / 191006.8 -1.2-2.5
2017-Dec-10 18:00N 43°54' W 076°48'7312.2 270 / 251009.3 -1.9-2.1
2017-Dec-10 12:00N 43°30' W 078°24'1110.6 280 / 241009.3 -0.3-4.1
2017-Dec-10 11:00N 43°24' W 078°36'1313.1 280 / 211009.3 0.1-3.4
2017-Dec-10 10:00N 43°24' W 078°54'1414.4 290 / 181009.1 0.2-3.3
2017-Dec-10 09:00N 43°18' W 079°12'6 6.0 300 / 161009.0 -0.0-1.9
2017-Dec-10 08:00N 43°12' W 079°12'0 0.0 270 / 101007.2 -0.7-0.9
2017-Dec-10 07:00N 43°12' W 079°12'0 0.0 250 / 51007.0 -1.7-1.9
2017-Dec-10 06:00N 43°12' W 079°12'0 0.0 260 / 61005.2 -1.5-1.7
2017-Dec-10 05:00N 43°12' W 079°12'6 6.0 260 / 4 -2.1-2.2
2017-Dec-10 04:00N 43°06' W 079°12'0 0.0 270 / 6 -1.8-2.0
2017-Dec-10 03:00N 43°06' W 079°12'0 0.0 240 / 4 -1.7-2.0
2017-Dec-10 02:00N 43°06' W 079°12'0 0.0 260 / 5 -1.5-3.8
2017-Dec-10 01:00N 43°06' W 079°12'0 0.0 260 / 8 -0.9-5.7
2017-Dec-10 00:00N 43°06' W 079°12'1212.0 260 / 4 -0.3-7.0
2017-Dec-09 23:00N 42°54' W 079°12'0 0.0 290 / 31008.4 -0.0-6.9
2017-Dec-09 22:00N 42°54' W 079°12'0 0.0 290 / 21008.4 0.1-7.3
2017-Dec-09 21:00N 42°54' W 079°12'0 0.0 210 / 31007.9 0.4-7.8
2017-Dec-09 20:00N 42°54' W 079°12'0 0.0 220 / 61007.8 0.8-8.4
2017-Dec-09 19:00N 42°54' W 079°12'4 4.4 220 / 71008.2 0.6-8.9
2017-Dec-09 18:00N 42°54' W 079°18'7 7.4 180 / 61008.7 1.6-7.2
2017-Dec-09 17:00N 42°48' W 079°24'1514.9 200 / 111009.6 -0.3-7.7
2017-Dec-09 16:00N 42°36' W 079°36'1110.7 200 / 131010.4 -0.3-7.5
2017-Dec-09 15:00N 42°30' W 079°48'7 7.5 200 / 131010.9 -0.9-6.5
2017-Dec-09 14:00N 42°24' W 079°54'1313.3 210 / 141010.8 -0.8-6.0
2017-Dec-09 13:00N 42°24' W 080°12'7 7.5 210 / 141011.1 -1.5-5.0
2017-Dec-09 12:00N 42°18' W 080°18'9 8.9 190 / 161010.7 -1.3-5.3
2017-Dec-09 11:00N 42°18' W 080°30'1514.6 190 / 171010.4 -0.8-5.0
2017-Dec-09 10:00N 42°12' W 080°48'9 8.9 190 / 161010.8 -0.9-5.0
2017-Dec-09 09:00N 42°12' W 081°00'1514.6 230 / 141011.3 0.5-5.1
2017-Dec-09 08:00N 42°06' W 081°18'1110.7 240 / 141011.7 0.4-4.9
2017-Dec-09 07:00N 42°00' W 081°30'1514.7 230 / 171011.8 0.5-3.8
2017-Dec-09 06:00N 41°54' W 081°48'9 8.9 240 / 151012.2 1.3-6.5
2017-Dec-09 05:00N 41°54' W 082°00'1313.4 250 / 221012.4 -0.1-8.0
2017-Dec-09 04:00N 41°54' W 082°18'1110.8 240 / 171013.3 1.0-7.7
2017-Dec-09 03:00N 41°48' W 082°30'1110.8 220 / 181013.0 -0.5-7.9
2017-Dec-09 02:00N 41°54' W 082°42'9 8.9 240 / 171013.2 -0.0-9.0
2017-Dec-09 01:00N 41°54' W 082°54'9 8.9 240 / 151013.2 0.2-8.7
2017-Dec-09 00:00N 41°54' W 083°06'1212.0 240 / 231012.3 0.5-10.2
2017-Dec-08 23:00N 42°06' W 083°06'1212.0 230 / 131012.8 -0.3-10.8
2017-Dec-08 22:00N 42°18' W 083°06'9 8.9 230 / 14 -0.0-11.7
2017-Dec-08 21:00N 42°18' W 082°54'1312.8 250 / 191011.1 0.1-11.2
2017-Dec-08 20:00N 42°30' W 082°48'1110.7 240 / 231011.3 -0.2-10.7
2017-Dec-08 19:00N 42°36' W 082°36'7 7.4 240 / 211010.2 -1.0-11.5
2017-Dec-08 18:00N 42°42' W 082°30'1212.0 230 / 17989.1 -1.5-11.3
2017-Dec-08 17:00N 42°54' W 082°30'7 7.4 210 / 191012.0 -2.0-11.9
2017-Dec-08 16:00N 43°00' W 082°24'6711.1 220 / 221012.9 -2.6-9.4
2017-Dec-08 10:00N 44°06' W 082°36'1010.5 230 / 221010.4 -2.6-4.9
2017-Dec-08 09:00N 44°12' W 082°48'1010.5 250 / 241011.0 -1.6-3.9
2017-Dec-08 08:00N 44°18' W 083°00'2010.0 250 / 241011.1 -2.5-5.2
2017-Dec-08 06:00N 44°36' W 083°12'1312.7 230 / 231011.3 -3.8-7.3
2017-Dec-08 05:00N 44°48' W 083°06'18 9.0 230 / 241011.3 -3.5-7.0
2017-Dec-08 03:00N 45°06' W 083°06'1514.7 240 / 221011.8 -3.4-6.4
2017-Dec-08 02:00N 45°18' W 083°18'510.2 240 / 151012.0 -3.8-6.1
2017-Dec-08 01:28N 45°23' W 083°20'511.8
2017-Dec-08 01:00N 45°28' W 083°24'2178.7
2017-Dec-08 01:00N 45°30' W 083°24'4 8.9 270 / 181012.1 -3.0-6.2
2017-Dec-08 00:30N 45°33' W 083°29'611.6
2017-Dec-08 00:00N 45°37' W 083°34'2221.5
2017-Dec-08 00:00N 45°36' W 083°36'613.2 290 / 181011.9 -2.7-6.4
2017-Dec-07 23:30N 45°42' W 083°38'612.3
2017-Dec-07 23:00N 45°48' W 083°42'1111.8 290 / 181011.9 -2.9-7.3
2017-Dec-07 22:04N 45°56' W 083°53'230.7
2017-Dec-07 22:00N 45°54' W 083°54'3425.3 290 / 131011.8 -4.2-7.9
2017-Dec-07 21:59N 45°57' W 083°53'1010.4
2017-Dec-07 21:00N 46°06' W 084°00'1 7.2 270 / 181011.5 -3.7-7.6
2017-Dec-07 20:50N 46°07' W 084°01'911.0
2017-Dec-07 20:00N 46°12' W 084°12'21411.8 280 / 171011.2 -3.4-6.6
2017-Dec-07 19:59N 46°13' W 084°09'5 5.5
2017-Dec-07 19:00N 46°18' W 084°12'1312.7 290 / 81011.3 -4.8-4.9
2017-Dec-07 18:00N 46°30' W 084°18'4 4.1 150 / 21011.5 -6.0-6.1
2017-Dec-07 17:00N 46°30' W 084°24'0 0.0 140 / 21011.6 -5.5-5.8
2017-Dec-07 16:00N 46°30' W 084°24'4 4.1 120 / 11013.0 -6.8-7.0
2017-Dec-07 15:00N 46°30' W 084°30'416.4 150 / 51012.3 -6.7-6.9
2017-Dec-07 14:47N 46°27' W 084°33'1113.9
2017-Dec-07 14:00N 46°36' W 084°42'7 7.3 340 / 171012.6 -4.5-6.0
2017-Dec-07 13:00N 46°42' W 084°48'1312.7 330 / 161012.6 -4.4-6.6
2017-Dec-07 12:00N 46°54' W 084°54'1514.5 330 / 171012.4 -4.5-7.3
2017-Dec-07 11:00N 47°06' W 085°06'1312.7 330 / 141012.4 -4.4-6.9
2017-Dec-07 10:00N 47°18' W 085°12'1312.7 320 / 151012.5 -5.1-6.7
2017-Dec-07 09:00N 47°30' W 085°18'1312.7 350 / 131012.6 -6.5-8.1
2017-Dec-07 08:00N 47°42' W 085°24'7 7.2 350 / 131012.6 -7.5-10.1
2017-Dec-07 07:00N 47°48' W 085°30'1313.5 350 / 121012.1 -7.8-10.9
2017-Dec-07 06:00N 47°54' W 085°48'8 8.0 360 / 141011.5 -7.4-10.9
2017-Dec-07 05:00N 47°54' W 086°00'5413.4 360 / 191011.2 -7.1-9.3
2017-Dec-07 01:00N 48°42' W 086°36'1211.9 330 / 241010.0 -7.2-10.3
2017-Dec-07 00:00N 48°42' W 086°54'2411.9 330 / 201009.7 -7.1-10.3
2017-Dec-06 22:00N 48°42' W 087°30'2110.4 320 / 231007.9 -5.9-8.0
2017-Dec-06 20:00N 48°36' W 088°00'1010.0 320 / 251005.6 -6.9-8.6
2017-Dec-06 19:00N 48°30' W 088°12'1313.4 320 / 241005.4 -6.9-10.0
2017-Dec-06 18:00N 48°24' W 088°30'1313.4 310 / 231005.6 -7.3-10.3
2017-Dec-06 17:00N 48°18' W 088°48'13 6.7 310 / 251005.3 -7.3-9.8
2017-Dec-06 15:00N 48°24' W 089°06'0 0.0 310 / 251004.2 -8.4-10.7
2017-Dec-06 14:00N 48°24' W 089°06'0 0.0 300 / 241003.1 -8.6-11.1
2017-Dec-06 13:00N 48°24' W 089°06'0 0.0 300 / 241002.2 -8.8-11.2
2017-Dec-06 12:00N 48°24' W 089°06'0 0.0 300 / 241001.2 -9.0-11.0
2017-Dec-06 04:00N 48°24' W 089°06'0 0.0 280 / 24997.5 -9.9-11.9
2017-Dec-06 01:00N 48°24' W 089°06'0 0.0 270 / 25995.9 -9.2-10.7
2017-Dec-05 17:00N 48°24' W 089°06'0 0.0 280 / 24989.3 -6.9-7.0
2017-Dec-05 08:00N 48°24' W 089°06'1010.0 300 / 21979.1 3.8 3.8
2017-Dec-05 07:00N 48°18' W 088°54'1414.4 330 / 24977.6 4.9 4.9
2017-Dec-05 06:00N 48°06' W 089°06'1010.0 320 / 17981.7 5.1 5.1
2017-Dec-05 05:00N 48°00' W 089°18'1313.5 330 / 14983.5 4.7 4.8
2017-Dec-05 04:00N 47°54' W 089°36'1010.0 010 / 11983.1 5.9 6.0
2017-Dec-05 03:00N 47°48' W 089°48'   350 / 12985.6 5.9 6.1
Track history (hours):
 
Tides and Currents Weather Stations Pressure Air Temp Water Temp Dewpoint Dewpoint Depression Visibility Wind Speed Wind Dir Waves Ship Positions

Canadian Enterprise

Last reported at 2017-Dec-15 03:00 UTC. Time now 2017-Dec-15 04:28 UTC.
Position N 41°42' W 083°30'.

Length 27 m; draft 4.2 m.

Type: Tug. MMSI: 314954697.

Wind from 230 at 5 knots

Barometer 1019.4 mb
Air temperature -8.2 ° C
Dewpoint -12.6 ° C

Date/timePositionNaut miles runAvg speedWind from/ knotsBaromVisibWave heightAir tempDewpointWater temp
2017-Dec-15 03:00N 41°42' W 083°30'0 0.0 230 / 51019.4 -8.2-12.6
2017-Dec-15 02:00N 41°42' W 083°30'0 0.0 240 / 61019.5 -8.3-12.4
2017-Dec-15 01:00N 41°42' W 083°30'0 0.0 230 / 61019.7 -7.9-12.4
2017-Dec-15 00:00N 41°42' W 083°30'0 0.0 240 / 61019.5 -7.1-12.3
2017-Dec-14 23:00N 41°42' W 083°30'0 0.0 270 / 51019.0 -7.0-12.3
2017-Dec-14 22:00N 41°42' W 083°30'0 0.0 290 / 41018.3 -6.8-12.7
2017-Dec-14 21:00N 41°42' W 083°30'4 4.5 300 / 41018.0 -5.8-12.6
2017-Dec-14 20:00N 41°42' W 083°24'1110.8 300 / 121017.3 -6.5-12.4
2017-Dec-14 19:00N 41°48' W 083°12'1514.7 300 / 131016.9 -6.7-11.9
2017-Dec-14 18:00N 41°54' W 082°54'9 8.9 310 / 91017.1 -6.5-11.7
2017-Dec-14 17:00N 41°54' W 082°42'1110.8 320 / 71017.4 -6.8-9.5
2017-Dec-14 16:00N 41°48' W 082°30'1514.7 320 / 131016.5 -5.5-6.6
2017-Dec-14 15:00N 41°54' W 082°12'1313.4 320 / 141014.9 -5.3-6.2
2017-Dec-14 14:00N 41°54' W 081°54'1110.8 330 / 141013.4 -5.8-8.0
2017-Dec-14 13:00N 42°00' W 081°42'1110.7 340 / 161011.9 -5.4-7.6
2017-Dec-14 12:00N 42°06' W 081°30'1514.6 360 / 141010.1 -5.1-7.9
2017-Dec-14 11:00N 42°12' W 081°12'4812.0 010 / 19 -5.4-7.3
2017-Dec-14 07:00N 42°30' W 080°12'1313.3 040 / 21999.5 -3.9-4.1
2017-Dec-14 06:00N 42°30' W 079°54'1514.9 040 / 21999.1 -3.0-3.1
2017-Dec-14 05:00N 42°42' W 079°42'1110.7 110 / 9999.2 -4.5-4.7
2017-Dec-14 04:00N 42°48' W 079°30'1110.6 070 / 171000.2 -5.7-5.9
2017-Dec-14 03:00N 42°54' W 079°18'4 4.4 060 / 91001.6 -8.3-8.5
2017-Dec-14 02:00N 42°54' W 079°12'6 6.0 070 / 61002.9 -8.4-8.6
2017-Dec-14 01:00N 43°00' W 079°12'6 6.0 130 / 3 -8.6-8.8
2017-Dec-14 00:00N 43°06' W 079°12'0 0.0 150 / 4 -8.0-11.1
2017-Dec-13 23:00N 43°06' W 079°12'0 0.0 150 / 4 -7.5-11.4
2017-Dec-13 22:00N 43°06' W 079°12'0 0.0 280 / 2 -7.1-11.6
2017-Dec-13 21:00N 43°06' W 079°12'12 1.7 270 / 5 -7.2-11.9
2017-Dec-13 14:00N 43°18' W 079°12'6 6.0 290 / 211007.2 -7.4-11.7
2017-Dec-13 13:00N 43°24' W 079°12'1212.0 300 / 191006.6 -8.1-11.0
2017-Dec-13 12:00N 43°36' W 079°12'39 7.8 290 / 111006.0 -10.5-11.6
2017-Dec-13 07:00N 43°54' W 078°24'13 6.5 320 / 221001.2 -10.4-12.3
2017-Dec-13 05:00N 43°54' W 078°06'4 4.3 310 / 241000.0 -8.7-9.8
2017-Dec-13 04:00N 43°54' W 078°00'4 4.3 310 / 231000.1 -8.1-8.6
2017-Dec-13 03:00N 43°54' W 077°54'44 6.2 290 / 24999.8 -7.8-8.4
2017-Dec-12 20:00N 43°48' W 076°54'7 7.4 300 / 17998.2 -3.3-3.5
2017-Dec-12 19:00N 43°54' W 076°48'1212.0 290 / 13998.5 -3.9-4.1
2017-Dec-12 18:00N 44°06' W 076°48'6 6.0 340 / 9997.9 -5.2-5.4
2017-Dec-12 17:00N 44°12' W 076°48'0 0.0 010 / 6998.2 -4.2-4.8
2017-Dec-12 16:00N 44°12' W 076°48'0 0.0 010 / 5998.9 -4.7-5.0
2017-Dec-12 15:00N 44°12' W 076°48'0 0.0 010 / 7999.1 -4.7-4.9
2017-Dec-12 14:00N 44°12' W 076°48'0 0.0 030 / 7999.5 -4.3-4.5
2017-Dec-12 13:00N 44°12' W 076°48'0 0.0 030 / 71000.0 -4.4-4.6
2017-Dec-12 12:00N 44°12' W 076°48'0 0.0 040 / 81000.6 -4.9-5.1
2017-Dec-12 11:00N 44°12' W 076°48'0 0.0 030 / 81001.1 -5.2-5.4
2017-Dec-12 10:00N 44°12' W 076°48'0 0.0 030 / 101002.1 -4.9-5.1
2017-Dec-12 09:00N 44°12' W 076°48'0 0.0 040 / 121003.2 -5.8-6.0
2017-Dec-12 08:00N 44°12' W 076°48'0 0.0 040 / 101005.1 -5.4-5.7
2017-Dec-12 07:00N 44°12' W 076°48'0 0.0 030 / 101006.5 -5.2-5.4
2017-Dec-12 06:00N 44°12' W 076°48'0 0.0 040 / 121007.6 -5.5-5.7
2017-Dec-12 05:00N 44°12' W 076°48'0 0.0 040 / 131009.1 -5.5-5.7
2017-Dec-12 04:00N 44°12' W 076°48'0 0.0 040 / 121010.3 -4.7-5.4
2017-Dec-12 03:00N 44°12' W 076°48'0 0.0 070 / 151011.5 -5.1-5.9
2017-Dec-12 02:00N 44°12' W 076°48'0 0.0 080 / 131012.1 -5.0-5.2
2017-Dec-12 01:00N 44°12' W 076°48'0 0.0 080 / 91013.4 -5.2-6.3
2017-Dec-12 00:00N 44°12' W 076°48'0 0.0 100 / 81014.3 -5.7-8.3
2017-Dec-11 23:00N 44°12' W 076°48'0 0.0 100 / 61015.5 -5.8-11.4
2017-Dec-11 22:00N 44°12' W 076°48'0 0.0 110 / 41016.3 -6.5-14.0
2017-Dec-11 21:00N 44°12' W 076°48'0 0.0 160 / 41016.7 -6.5-13.7
2017-Dec-11 19:00N 44°12' W 076°48'0 0.0 040 / 21016.9 -5.1-14.1
2017-Dec-11 18:00N 44°12' W 076°48'0 0.0 350 / 31017.3 -5.9-14.4
2017-Dec-11 17:00N 44°12' W 076°48'0 0.0 360 / 31017.9 -6.7-13.7
2017-Dec-11 16:00N 44°12' W 076°48'0 0.0 340 / 31018.7 -7.2-12.9
2017-Dec-11 15:00N 44°12' W 076°48'0 0.0 020 / 41018.5 -6.6-11.3
2017-Dec-11 14:00N 44°12' W 076°48'0 0.0 360 / 41018.2 -8.0-11.6
2017-Dec-11 13:00N 44°12' W 076°48'0 0.0 010 / 51016.8 -8.4-11.2
2017-Dec-11 12:00N 44°12' W 076°48'0 0.0 340 / 61016.3 -8.3-11.3
2017-Dec-11 11:00N 44°12' W 076°48'0 0.0 340 / 41015.2 -6.1-11.5
2017-Dec-11 10:00N 44°12' W 076°48'0 0.0 340 / 51014.4 -5.2-9.8
2017-Dec-11 09:00N 44°12' W 076°48'0 0.0 310 / 61013.5 -3.8-9.6
2017-Dec-11 08:00N 44°12' W 076°48'0 0.0 350 / 81012.6 -3.3-7.9
2017-Dec-11 07:00N 44°12' W 076°48'0 0.0 300 / 81012.0 -3.0-8.7
2017-Dec-11 06:00N 44°12' W 076°48'0 0.0 300 / 81011.2 -2.1-6.4
2017-Dec-11 05:00N 44°12' W 076°48'0 0.0 300 / 91010.9 -1.4-4.9
2017-Dec-11 04:00N 44°12' W 076°48'0 0.0 280 / 111010.3 -0.6-4.4
2017-Dec-11 03:00N 44°12' W 076°48'0 0.0 270 / 121010.0 -0.2-4.9
2017-Dec-11 02:00N 44°12' W 076°48'0 0.0 270 / 71009.7 -0.4-4.3
2017-Dec-11 01:00N 44°12' W 076°48'0 0.0 260 / 81009.6 -0.3-4.9
2017-Dec-11 00:00N 44°12' W 076°48'0 0.0 260 / 111009.4 -0.3-5.8
2017-Dec-10 23:00N 44°12' W 076°48'0 0.0 250 / 111009.1 -0.6-5.9
2017-Dec-10 22:00N 44°12' W 076°48'0 0.0 250 / 121008.8 -0.6-5.3
2017-Dec-10 21:00N 44°12' W 076°48'6 6.0 250 / 101008.5 -0.9-3.2
2017-Dec-10 20:00N 44°06' W 076°48'6 6.0 250 / 171007.8 -1.2-3.9
2017-Dec-10 19:00N 44°00' W 076°48'6 6.0 270 / 191006.8 -1.2-2.5
2017-Dec-10 18:00N 43°54' W 076°48'7312.2 270 / 251009.3 -1.9-2.1
2017-Dec-10 12:00N 43°30' W 078°24'1110.6 280 / 241009.3 -0.3-4.1
2017-Dec-10 11:00N 43°24' W 078°36'1313.1 280 / 211009.3 0.1-3.4
2017-Dec-10 10:00N 43°24' W 078°54'1414.4 290 / 181009.1 0.2-3.3
2017-Dec-10 09:00N 43°18' W 079°12'6 6.0 300 / 161009.0 -0.0-1.9
2017-Dec-10 08:00N 43°12' W 079°12'0 0.0 270 / 101007.2 -0.7-0.9
2017-Dec-10 07:00N 43°12' W 079°12'0 0.0 250 / 51007.0 -1.7-1.9
2017-Dec-10 06:00N 43°12' W 079°12'0 0.0 260 / 61005.2 -1.5-1.7
2017-Dec-10 05:00N 43°12' W 079°12'6 6.0 260 / 4 -2.1-2.2
2017-Dec-10 04:00N 43°06' W 079°12'0 0.0 270 / 6 -1.8-2.0
2017-Dec-10 03:00N 43°06' W 079°12'0 0.0 240 / 4 -1.7-2.0
2017-Dec-10 02:00N 43°06' W 079°12'0 0.0 260 / 5 -1.5-3.8
2017-Dec-10 01:00N 43°06' W 079°12'0 0.0 260 / 8 -0.9-5.7
2017-Dec-10 00:00N 43°06' W 079°12'1212.0 260 / 4 -0.3-7.0
2017-Dec-09 23:00N 42°54' W 079°12'0 0.0 290 / 31008.4 -0.0-6.9
2017-Dec-09 22:00N 42°54' W 079°12'0 0.0 290 / 21008.4 0.1-7.3
2017-Dec-09 21:00N 42°54' W 079°12'0 0.0 210 / 31007.9 0.4-7.8
2017-Dec-09 20:00N 42°54' W 079°12'0 0.0 220 / 61007.8 0.8-8.4
2017-Dec-09 19:00N 42°54' W 079°12'4 4.4 220 / 71008.2 0.6-8.9
2017-Dec-09 18:00N 42°54' W 079°18'7 7.4 180 / 61008.7 1.6-7.2
2017-Dec-09 17:00N 42°48' W 079°24'1514.9 200 / 111009.6 -0.3-7.7
2017-Dec-09 16:00N 42°36' W 079°36'1110.7 200 / 131010.4 -0.3-7.5
2017-Dec-09 15:00N 42°30' W 079°48'7 7.5 200 / 131010.9 -0.9-6.5
2017-Dec-09 14:00N 42°24' W 079°54'1313.3 210 / 141010.8 -0.8-6.0
2017-Dec-09 13:00N 42°24' W 080°12'7 7.5 210 / 141011.1 -1.5-5.0
2017-Dec-09 12:00N 42°18' W 080°18'9 8.9 190 / 161010.7 -1.3-5.3
2017-Dec-09 11:00N 42°18' W 080°30'1514.6 190 / 171010.4 -0.8-5.0
2017-Dec-09 10:00N 42°12' W 080°48'9 8.9 190 / 161010.8 -0.9-5.0
2017-Dec-09 09:00N 42°12' W 081°00'1514.6 230 / 141011.3 0.5-5.1
2017-Dec-09 08:00N 42°06' W 081°18'1110.7 240 / 141011.7 0.4-4.9
2017-Dec-09 07:00N 42°00' W 081°30'1514.7 230 / 171011.8 0.5-3.8
2017-Dec-09 06:00N 41°54' W 081°48'9 8.9 240 / 151012.2 1.3-6.5
2017-Dec-09 05:00N 41°54' W 082°00'1313.4 250 / 221012.4 -0.1-8.0
2017-Dec-09 04:00N 41°54' W 082°18'1110.8 240 / 171013.3 1.0-7.7
2017-Dec-09 03:00N 41°48' W 082°30'1110.8 220 / 181013.0 -0.5-7.9
2017-Dec-09 02:00N 41°54' W 082°42'9 8.9 240 / 171013.2 -0.0-9.0
2017-Dec-09 01:00N 41°54' W 082°54'9 8.9 240 / 151013.2 0.2-8.7
2017-Dec-09 00:00N 41°54' W 083°06'1212.0 240 / 231012.3 0.5-10.2
2017-Dec-08 23:00N 42°06' W 083°06'1212.0 230 / 131012.8 -0.3-10.8
2017-Dec-08 22:00N 42°18' W 083°06'9 8.9 230 / 14 -0.0-11.7
2017-Dec-08 21:00N 42°18' W 082°54'1312.8 250 / 191011.1 0.1-11.2
2017-Dec-08 20:00N 42°30' W 082°48'1110.7 240 / 231011.3 -0.2-10.7
2017-Dec-08 19:00N 42°36' W 082°36'7 7.4 240 / 211010.2 -1.0-11.5
2017-Dec-08 18:00N 42°42' W 082°30'1212.0 230 / 17989.1 -1.5-11.3
2017-Dec-08 17:00N 42°54' W 082°30'7 7.4 210 / 191012.0 -2.0-11.9
2017-Dec-08 16:00N 43°00' W 082°24'6711.1 220 / 221012.9 -2.6-9.4
2017-Dec-08 10:00N 44°06' W 082°36'1010.5 230 / 221010.4 -2.6-4.9
2017-Dec-08 09:00N 44°12' W 082°48'1010.5 250 / 241011.0 -1.6-3.9
2017-Dec-08 08:00N 44°18' W 083°00'2010.0 250 / 241011.1 -2.5-5.2
2017-Dec-08 06:00N 44°36' W 083°12'1312.7 230 / 231011.3 -3.8-7.3
2017-Dec-08 05:00N 44°48' W 083°06'18 9.0 230 / 241011.3 -3.5-7.0
2017-Dec-08 03:00N 45°06' W 083°06'1514.7 240 / 221011.8 -3.4-6.4
2017-Dec-08 02:00N 45°18' W 083°18'510.2 240 / 151012.0 -3.8-6.1
2017-Dec-08 01:28N 45°23' W 083°20'511.8
2017-Dec-08 01:00N 45°28' W 083°24'2178.7
2017-Dec-08 01:00N 45°30' W 083°24'4 8.9 270 / 181012.1 -3.0-6.2
2017-Dec-08 00:30N 45°33' W 083°29'611.6
2017-Dec-08 00:00N 45°37' W 083°34'2221.5
2017-Dec-08 00:00N 45°36' W 083°36'613.2 290 / 181011.9 -2.7-6.4
2017-Dec-07 23:30N 45°42' W 083°38'612.3
2017-Dec-07 23:00N 45°48' W 083°42'1111.8 290 / 181011.9 -2.9-7.3
2017-Dec-07 22:04N 45°56' W 083°53'230.7
2017-Dec-07 22:00N 45°54' W 083°54'3425.3 290 / 131011.8 -4.2-7.9
2017-Dec-07 21:59N 45°57' W 083°53'1010.4
2017-Dec-07 21:00N 46°06' W 084°00'1 7.2 270 / 181011.5 -3.7-7.6
2017-Dec-07 20:50N 46°07' W 084°01'911.0
2017-Dec-07 20:00N 46°12' W 084°12'21411.8 280 / 171011.2 -3.4-6.6
2017-Dec-07 19:59N 46°13' W 084°09'5 5.5
2017-Dec-07 19:00N 46°18' W 084°12'1312.7 290 / 81011.3 -4.8-4.9
2017-Dec-07 18:00N 46°30' W 084°18'4 4.1 150 / 21011.5 -6.0-6.1
2017-Dec-07 17:00N 46°30' W 084°24'0 0.0 140 / 21011.6 -5.5-5.8
2017-Dec-07 16:00N 46°30' W 084°24'4 4.1 120 / 11013.0 -6.8-7.0
2017-Dec-07 15:00N 46°30' W 084°30'416.4 150 / 51012.3 -6.7-6.9
2017-Dec-07 14:47N 46°27' W 084°33'1113.9
2017-Dec-07 14:00N 46°36' W 084°42'7 7.3 340 / 171012.6 -4.5-6.0
2017-Dec-07 13:00N 46°42' W 084°48'1312.7 330 / 161012.6 -4.4-6.6
2017-Dec-07 12:00N 46°54' W 084°54'1514.5 330 / 171012.4 -4.5-7.3
2017-Dec-07 11:00N 47°06' W 085°06'1312.7 330 / 141012.4 -4.4-6.9
2017-Dec-07 10:00N 47°18' W 085°12'1312.7 320 / 151012.5 -5.1-6.7
2017-Dec-07 09:00N 47°30' W 085°18'1312.7 350 / 131012.6 -6.5-8.1
2017-Dec-07 08:00N 47°42' W 085°24'7 7.2 350 / 131012.6 -7.5-10.1
2017-Dec-07 07:00N 47°48' W 085°30'1313.5 350 / 121012.1 -7.8-10.9
2017-Dec-07 06:00N 47°54' W 085°48'8 8.0 360 / 141011.5 -7.4-10.9
2017-Dec-07 05:00N 47°54' W 086°00'5413.4 360 / 191011.2 -7.1-9.3
2017-Dec-07 01:00N 48°42' W 086°36'1211.9 330 / 241010.0 -7.2-10.3
2017-Dec-07 00:00N 48°42' W 086°54'2411.9 330 / 201009.7 -7.1-10.3
2017-Dec-06 22:00N 48°42' W 087°30'2110.4 320 / 231007.9 -5.9-8.0
2017-Dec-06 20:00N 48°36' W 088°00'1010.0 320 / 251005.6 -6.9-8.6
2017-Dec-06 19:00N 48°30' W 088°12'1313.4 320 / 241005.4 -6.9-10.0
2017-Dec-06 18:00N 48°24' W 088°30'1313.4 310 / 231005.6 -7.3-10.3
2017-Dec-06 17:00N 48°18' W 088°48'13 6.7 310 / 251005.3 -7.3-9.8
2017-Dec-06 15:00N 48°24' W 089°06'0 0.0 310 / 251004.2 -8.4-10.7
2017-Dec-06 14:00N 48°24' W 089°06'0 0.0 300 / 241003.1 -8.6-11.1
2017-Dec-06 13:00N 48°24' W 089°06'0 0.0 300 / 241002.2 -8.8-11.2
2017-Dec-06 12:00N 48°24' W 089°06'0 0.0 300 / 241001.2 -9.0-11.0
2017-Dec-06 04:00N 48°24' W 089°06'0 0.0 280 / 24997.5 -9.9-11.9
2017-Dec-06 01:00N 48°24' W 089°06'0 0.0 270 / 25995.9 -9.2-10.7
2017-Dec-05 17:00N 48°24' W 089°06'0 0.0 280 / 24989.3 -6.9-7.0
2017-Dec-05 08:00N 48°24' W 089°06'1010.0 300 / 21979.1 3.8 3.8
2017-Dec-05 07:00N 48°18' W 088°54'1414.4 330 / 24977.6 4.9 4.9
2017-Dec-05 06:00N 48°06' W 089°06'1010.0 320 / 17981.7 5.1 5.1
2017-Dec-05 05:00N 48°00' W 089°18'1313.5 330 / 14983.5 4.7 4.8
2017-Dec-05 04:00N 47°54' W 089°36'1010.0 010 / 11983.1 5.9 6.0
2017-Dec-05 03:00N 47°48' W 089°48'   350 / 12985.6 5.9 6.1

Dump ship's entire track history